Time;durP1;ratioP1;P1;durP2;ratioP2;P2;SDS_P1;SDS_P2;PMS_P1;PMS_P2;Temp;Humidity;BMP_temperature;BMP_pressure;BME280_temperature;BME280_humidity;BME280_pressure;Samples;Min_cycle;Max_cycle;Signal;HPM_P1;HPM_P2
2022/08/26 00:01:14;;;;;;;6.90;6.20;;;;;;;24.03;67.72;101463.66;6039803;29;20242;-69
2022/08/26 00:04:35;;;;;;;8.40;6.63;;;;;;;24.12;67.54;101459.66;6031522;29;20238;-69
2022/08/26 00:07:56;;;;;;;8.13;6.15;;;;;;;23.70;69.25;101456.16;6038524;29;20325;-69
2022/08/26 00:11:17;;;;;;;6.85;5.85;;;;;;;23.97;67.87;101456.25;6011311;29;20621;-69
2022/08/26 00:14:39;;;;;;;6.93;6.32;;;;;;;23.95;68.17;101461.13;6024409;29;20836;-70
2022/08/26 00:18:00;;;;;;;10.20;6.70;;;;;;;24.04;67.76;101457.97;6037679;29;20620;-68
2022/08/26 00:21:21;;;;;;;7.82;6.65;;;;;;;24.06;68.24;101458.59;6035869;29;20308;-68
2022/08/26 00:24:43;;;;;;;6.85;6.15;;;;;;;24.12;67.77;101454.16;6037698;29;20233;-69
2022/08/26 00:28:04;;;;;;;6.63;5.72;;;;;;;24.01;68.65;101455.59;6032021;29;21030;-71
2022/08/26 00:31:26;;;;;;;8.82;7.13;;;;;;;23.98;68.62;101456.03;6034881;29;20237;-69
2022/08/26 00:34:47;;;;;;;7.40;6.00;;;;;;;23.98;68.74;101453.28;6038551;29;20253;-69
2022/08/26 00:38:09;;;;;;;8.68;7.43;;;;;;;24.04;68.08;101449.72;6032948;29;20249;-69
2022/08/26 00:41:30;;;;;;;9.25;6.68;;;;;;;24.02;68.35;101445.44;6034545;29;20260;-69
2022/08/26 00:44:51;;;;;;;6.80;6.05;;;;;;;24.07;68.15;101448.44;6037695;29;20241;-69
2022/08/26 00:48:16;;;;;;;7.88;6.80;;;;;;;23.99;68.61;101451.38;6034481;29;20237;-70
2022/08/26 00:51:43;;;;;;;9.45;6.40;;;;;;;24.02;68.03;101448.19;6035906;29;20257;-69
2022/08/26 00:55:09;;;;;;;9.30;6.30;;;;;;;24.01;67.96;101450.06;6028801;29;20632;-69
2022/08/26 00:58:32;;;;;;;9.85;7.45;;;;;;;23.93;69.04;101443.94;6028715;29;20932;-69
2022/08/26 01:01:54;;;;;;;8.23;6.00;;;;;;;23.81;69.31;101450.06;6032174;29;20257;-70
2022/08/26 01:05:18;;;;;;;7.22;6.00;;;;;;;23.95;69.02;101444.59;6033406;29;20250;-69
2022/08/26 01:08:39;;;;;;;8.40;5.90;;;;;;;23.91;68.88;101443.31;6035973;29;20230;-69
2022/08/26 01:12:02;;;;;;;7.93;6.70;;;;;;;23.89;69.14;101443.50;6009243;29;20245;-70
2022/08/26 01:15:30;;;;;;;8.40;6.90;;;;;;;24.01;68.71;101435.47;6030501;29;20229;-70
2022/08/26 01:18:54;;;;;;;9.40;6.95;;;;;;;23.96;68.87;101433.34;6038926;29;20245;-70
2022/08/26 01:22:22;;;;;;;6.88;6.15;;;;;;;23.87;69.76;101445.59;6032606;29;20238;-68
2022/08/26 01:25:50;;;;;;;10.43;7.55;;;;;;;23.90;69.40;101442.44;6033709;29;20242;-69
2022/08/26 01:29:15;;;;;;;7.18;6.25;;;;;;;23.97;68.90;101448.81;6031326;29;20682;-69
2022/08/26 01:32:37;;;;;;;6.88;6.15;;;;;;;23.71;70.41;101452.38;6026696;29;20543;-70
2022/08/26 01:35:58;;;;;;;7.40;5.57;;;;;;;23.64;70.44;101457.00;6033472;29;20234;-69
2022/08/26 01:39:20;;;;;;;7.00;6.32;;;;;;;23.60;70.46;101449.34;6033018;29;20237;-69
2022/08/26 01:42:42;;;;;;;7.05;6.30;;;;;;;23.58;70.62;101452.31;6032545;29;20320;-69
2022/08/26 01:46:05;;;;;;;10.07;6.13;;;;;;;23.58;70.76;101449.56;6034479;29;20238;-69
2022/08/26 01:49:27;;;;;;;7.55;6.50;;;;;;;23.61;70.58;101442.81;6029992;29;20234;-69
2022/08/26 01:52:49;;;;;;;7.85;7.15;;;;;;;23.54;71.23;101458.44;6035044;29;20234;-69
2022/08/26 01:56:12;;;;;;;9.80;6.18;;;;;;;23.65;70.67;101446.84;6034853;29;20245;-70
2022/08/26 01:59:34;;;;;;;9.23;6.55;;;;;;;23.71;69.86;101446.00;6035948;29;20690;-69
2022/08/26 02:06:33;;;;;;;7.57;6.78;;;;;;;23.48;70.76;101446.38;6043232;29;20237;-69
2022/08/26 02:09:54;;;;;;;7.57;6.57;;;;;;;23.48;71.18;101445.50;6038951;29;20234;-69
2022/08/26 02:13:14;;;;;;;10.95;6.63;;;;;;;23.49;70.61;101448.03;6038487;29;20234;-69
2022/08/26 02:16:42;;;;;;;7.25;6.55;;;;;;;23.39;71.53;101447.59;6036730;29;20250;-69
2022/08/26 02:20:04;;;;;;;10.40;6.45;;;;;;;23.25;71.81;101437.56;6035103;29;20332;-70
2022/08/26 02:23:25;;;;;;;6.63;5.68;;;;;;;23.16;72.04;101440.66;6036235;29;20237;-70
2022/08/26 02:26:47;;;;;;;8.52;6.32;;;;;;;23.27;71.58;101435.44;6036450;29;20229;-69
2022/08/26 02:30:13;;;;;;;7.20;6.50;;;;;;;23.31;71.71;101435.88;6033948;29;20591;-70
2022/08/26 02:33:35;;;;;;;7.88;7.07;;;;;;;23.28;72.10;101433.56;6033656;29;20829;-69
2022/08/26 02:36:57;;;;;;;8.35;6.32;;;;;;;23.22;72.40;101429.69;6037439;29;20305;-69
2022/08/26 02:40:22;;;;;;;9.93;7.13;;;;;;;23.38;71.20;101429.41;6034057;29;20243;-69
2022/08/26 02:43:43;;;;;;;6.40;5.78;;;;;;;23.38;71.22;101434.03;6035129;29;20233;-69
2022/08/26 02:47:04;;;;;;;7.63;6.50;;;;;;;23.32;71.25;101429.34;6033809;29;20235;-70
2022/08/26 02:50:27;;;;;;;7.70;5.03;;;;;;;23.27;71.90;101429.09;6036660;29;20617;-70
2022/08/26 02:53:48;;;;;;;7.97;6.70;;;;;;;23.06;72.17;101424.53;6034467;29;20238;-69
2022/08/26 02:57:09;;;;;;;9.65;5.70;;;;;;;23.00;73.25;101423.47;6037693;29;21292;-68
2022/08/26 03:00:31;;;;;;;8.35;7.45;;;;;;;22.98;72.57;101427.47;6029121;29;20234;-69
2022/08/26 03:03:52;;;;;;;21.70;18.77;;;;;;;22.76;73.38;101432.19;6037253;29;20233;-69
2022/08/26 03:07:15;;;;;;;14.77;11.82;;;;;;;22.67;74.13;101430.69;6032997;29;20612;-69
2022/08/26 03:10:36;;;;;;;10.43;8.32;;;;;;;22.76;74.26;101434.13;6027343;29;20241;-69
2022/08/26 03:13:59;;;;;;;9.63;7.22;;;;;;;22.78;73.99;101426.53;6029092;29;20233;-69
2022/08/26 03:17:20;;;;;;;9.48;8.25;;;;;;;22.76;74.09;101423.13;6031435;29;20242;-68
2022/08/26 03:20:41;;;;;;;8.48;7.50;;;;;;;22.70;74.21;101421.16;6029186;29;20246;-68
2022/08/26 03:24:04;;;;;;;8.30;7.47;;;;;;;22.67;73.89;101411.44;6031004;29;20672;-68
2022/08/26 03:27:25;;;;;;;7.93;7.13;;;;;;;22.61;73.99;101406.72;6031429;29;20225;-69
2022/08/26 03:30:46;;;;;;;9.00;7.53;;;;;;;22.61;74.20;101412.22;6041142;29;20229;-69
2022/08/26 03:34:07;;;;;;;8.00;7.30;;;;;;;22.69;74.02;101402.97;6038246;29;20245;-69
2022/08/26 03:37:28;;;;;;;10.02;7.22;;;;;;;22.71;73.68;101406.38;6039793;29;20324;-69
2022/08/26 03:40:51;;;;;;;7.45;6.82;;;;;;;22.55;74.10;101403.91;6031719;29;20330;-69
2022/08/26 03:44:13;;;;;;;7.85;7.05;;;;;;;22.50;75.00;101401.78;6042000;29;20238;-69
2022/08/26 03:47:34;;;;;;;12.55;7.00;;;;;;;22.51;74.81;101395.19;6037303;29;20312;-70
2022/08/26 03:50:55;;;;;;;16.50;8.02;;;;;;;22.62;73.82;101408.44;6036420;29;20238;-69
2022/08/26 03:54:16;;;;;;;7.68;6.97;;;;;;;22.52;74.33;101407.91;6041209;29;20500;-69
2022/08/26 03:57:39;;;;;;;8.05;7.22;;;;;;;22.45;75.33;101408.91;6037670;29;20241;-69
2022/08/26 04:01:00;;;;;;;10.18;6.95;;;;;;;22.53;74.46;101406.03;6033875;29;20252;-69
2022/08/26 04:04:21;;;;;;;11.88;7.97;;;;;;;22.51;74.79;101403.44;6038210;29;20257;-70
2022/08/26 04:07:43;;;;;;;13.63;10.13;;;;;;;22.44;74.86;101399.81;6038288;29;20225;-69
2022/08/26 04:11:04;;;;;;;14.32;10.07;;;;;;;22.49;74.74;101397.31;6033035;29;20242;-69
2022/08/26 04:14:27;;;;;;;12.32;9.13;;;;;;;22.50;74.05;101399.03;6040482;29;20234;-69
2022/08/26 04:17:48;;;;;;;8.80;7.47;;;;;;;22.52;74.63;101394.16;6033970;29;20317;-70
2022/08/26 04:21:11;;;;;;;11.88;8.30;;;;;;;22.59;74.44;101391.50;6010268;29;20802;-68
2022/08/26 04:24:32;;;;;;;9.13;7.35;;;;;;;22.58;74.52;101379.66;6034376;29;20233;-69
2022/08/26 04:27:53;;;;;;;12.15;7.10;;;;;;;22.63;74.48;101387.28;6034208;29;20241;-69
2022/08/26 04:31:17;;;;;;;7.57;6.65;;;;;;;22.70;73.30;101380.78;6034225;29;20965;-69
2022/08/26 04:34:39;;;;;;;9.90;8.15;;;;;;;22.43;74.81;101391.75;6034677;29;20254;-69
2022/08/26 04:38:00;;;;;;;9.10;7.22;;;;;;;22.36;74.88;101377.16;6036456;29;20373;-69
2022/08/26 04:41:21;;;;;;;11.27;7.88;;;;;;;22.42;74.88;101381.84;6035686;29;20442;-69
2022/08/26 04:44:42;;;;;;;5.47;4.97;;;;;;;22.56;74.91;101380.88;6036933;29;20230;-69
2022/08/26 04:48:05;;;;;;;11.88;7.38;;;;;;;22.79;73.73;101384.22;6036996;29;20730;-68
2022/08/26 04:51:27;;;;;;;8.20;6.90;;;;;;;22.76;73.93;101387.38;6026436;29;20238;-68
2022/08/26 04:54:48;;;;;;;9.75;7.57;;;;;;;22.72;74.07;101383.31;6034580;29;20243;-68
2022/08/26 04:58:10;;;;;;;9.35;6.38;;;;;;;22.80;73.58;101378.50;6038598;29;20234;-69
2022/08/26 05:01:31;;;;;;;9.38;6.32;;;;;;;22.83;73.80;101385.50;6032093;29;20265;-69
2022/08/26 05:04:53;;;;;;;8.27;7.18;;;;;;;22.73;73.65;101383.13;6037789;29;20230;-69
2022/08/26 05:08:15;;;;;;;7.13;6.22;;;;;;;22.94;72.88;101387.69;6038920;29;20255;-69
2022/08/26 05:11:37;;;;;;;8.38;7.30;;;;;;;22.91;73.36;101390.81;6037179;29;20328;-70
2022/08/26 05:14:58;;;;;;;15.27;7.45;;;;;;;22.89;73.15;101381.94;6037734;29;20237;-69
2022/08/26 05:18:21;;;;;;;9.20;7.43;;;;;;;22.91;73.08;101390.81;6041051;29;20260;-69
2022/08/26 05:21:44;;;;;;;7.60;5.93;;;;;;;23.05;72.84;101387.09;6030912;29;21266;-69
2022/08/26 05:25:06;;;;;;;7.85;7.07;;;;;;;22.97;72.99;101390.00;6038221;29;20257;-69
2022/08/26 05:28:29;;;;;;;10.60;7.57;;;;;;;22.66;74.54;101387.72;6036740;29;20230;-69
2022/08/26 05:31:50;;;;;;;9.35;7.85;;;;;;;22.99;73.52;101390.66;6030689;29;20229;-68
2022/08/26 05:35:12;;;;;;;9.10;7.90;;;;;;;22.53;74.64;101390.34;6036945;29;20246;-69
2022/08/26 05:38:34;;;;;;;9.85;7.55;;;;;;;22.94;73.67;101388.53;6034332;29;20242;-69
2022/08/26 05:41:55;;;;;;;10.47;8.00;;;;;;;22.90;73.61;101398.25;6023855;29;20913;-68
2022/08/26 05:45:16;;;;;;;8.73;6.25;;;;;;;23.12;72.89;101400.88;6018240;29;20242;-69
2022/08/26 05:48:38;;;;;;;9.43;8.25;;;;;;;23.02;73.03;101393.84;6033199;29;20620;-67
2022/08/26 05:51:59;;;;;;;8.25;7.05;;;;;;;23.05;73.43;101406.38;6034198;29;20238;-69
2022/08/26 05:55:21;;;;;;;10.82;8.52;;;;;;;22.66;74.61;101397.88;6024003;29;20787;-67
2022/08/26 05:58:43;;;;;;;8.10;7.30;;;;;;;23.16;72.84;101405.75;6033417;29;20242;-66
2022/08/26 06:02:05;;;;;;;11.50;8.00;;;;;;;22.86;73.70;101396.09;6026399;29;20242;-67
2022/08/26 06:05:25;;;;;;;10.95;7.18;;;;;;;23.06;73.58;101405.28;6038366;29;20521;-67
2022/08/26 06:08:47;;;;;;;19.50;8.27;;;;;;;23.20;72.78;101411.72;6029244;29;20685;-68
2022/08/26 06:12:09;;;;;;;7.80;6.30;;;;;;;23.53;71.24;101410.78;6033251;29;20628;-68
2022/08/26 06:15:31;;;;;;;10.95;8.65;;;;;;;23.55;71.44;101410.59;6031101;29;20728;-68
2022/08/26 06:18:52;;;;;;;8.25;7.45;;;;;;;23.59;70.81;101404.44;6029256;29;20344;-68
2022/08/26 06:25:49;;;;;;;7.70;6.43;;;;;;;23.83;70.81;101401.13;6026043;29;20226;-68
2022/08/26 06:29:11;;;;;;;9.63;7.82;;;;;;;24.10;69.30;101392.91;6035687;29;20233;-68
2022/08/26 06:32:32;;;;;;;8.48;7.10;;;;;;;24.23;68.91;101387.38;6028784;29;20249;-68
2022/08/26 06:35:52;;;;;;;12.32;7.45;;;;;;;24.43;68.14;101377.19;6029154;29;20352;-67
2022/08/26 06:39:16;;;;;;;9.85;6.97;;;;;;;24.38;68.44;101386.13;6031176;29;20238;-69
2022/08/26 06:42:37;;;;;;;8.00;7.22;;;;;;;24.38;68.56;101382.50;6030196;29;20257;-67
2022/08/26 06:46:03;;;;;;;9.02;8.10;;;;;;;24.48;67.87;101381.00;6024028;29;20239;-68
2022/08/26 06:49:24;;;;;;;7.63;6.93;;;;;;;24.53;68.21;101385.88;6030133;29;20226;-68
2022/08/26 06:52:45;;;;;;;8.75;7.85;;;;;;;24.32;68.85;101397.97;6025747;29;20234;-67
2022/08/26 06:56:08;;;;;;;8.35;6.70;;;;;;;24.93;67.30;101398.53;6023063;29;20230;-71
2022/08/26 06:59:30;;;;;;;12.60;8.05;;;;;;;25.13;66.88;101395.72;6031121;29;20249;-69
2022/08/26 07:02:52;;;;;;;12.82;9.00;;;;;;;24.92;67.37;101401.50;6018794;29;20234;-68
2022/08/26 07:06:13;;;;;;;15.68;9.32;;;;;;;24.23;69.58;101406.69;6030889;29;20262;-69
2022/08/26 07:09:36;;;;;;;11.02;8.05;;;;;;;24.02;70.38;101409.59;6029022;29;20269;-69
2022/08/26 07:12:57;;;;;;;10.00;7.55;;;;;;;24.44;69.02;101403.72;6020547;29;20234;-69
2022/08/26 07:16:18;;;;;;;12.23;9.07;;;;;;;24.66;67.90;101407.91;6032951;29;20257;-69
2022/08/26 07:19:40;;;;;;;11.25;7.72;;;;;;;25.03;66.41;101398.91;6034787;29;20234;-68
2022/08/26 07:23:01;;;;;;;11.57;7.97;;;;;;;24.90;66.91;101407.25;6031722;29;20576;-68
2022/08/26 07:26:26;;;;;;;7.97;6.82;;;;;;;25.38;65.56;101414.06;6038062;29;20370;-68
2022/08/26 07:29:47;;;;;;;11.52;7.78;;;;;;;25.69;64.46;101410.53;6037530;29;20237;-68
2022/08/26 07:33:08;;;;;;;14.00;9.25;;;;;;;25.01;66.52;101411.25;6030939;29;20329;-69
2022/08/26 07:36:31;;;;;;;11.93;8.88;;;;;;;25.31;65.87;101413.25;6037008;29;20245;-69
2022/08/26 07:39:52;;;;;;;13.43;7.80;;;;;;;25.57;64.47;101416.97;6028396;29;21549;-67
2022/08/26 07:43:13;;;;;;;18.67;7.93;;;;;;;26.04;63.59;101408.16;6031775;29;20237;-68
2022/08/26 07:46:34;;;;;;;12.73;9.50;;;;;;;25.96;63.01;101416.72;6026853;29;20235;-67
2022/08/26 07:49:57;;;;;;;11.07;8.75;;;;;;;25.50;64.06;101405.97;6033001;29;20237;-66
2022/08/26 07:53:20;;;;;;;12.07;9.10;;;;;;;26.18;62.26;101397.88;6033088;29;20246;-71
2022/08/26 07:56:41;;;;;;;11.93;8.25;;;;;;;26.06;62.59;101404.09;6035000;29;20241;-70
2022/08/26 08:00:04;;;;;;;15.90;10.02;;;;;;;25.93;63.31;101417.19;6032381;29;20242;-68
2022/08/26 08:03:33;;;;;;;12.07;8.27;;;;;;;26.20;62.38;101417.84;6030239;29;20329;-69
2022/08/26 08:06:55;;;;;;;12.43;9.32;;;;;;;25.86;63.53;101424.66;6039570;29;20321;-69
2022/08/26 08:10:20;;;;;;;12.43;9.25;;;;;;;25.96;63.59;101423.09;6036069;29;20234;-72
2022/08/26 08:13:41;;;;;;;9.82;8.00;;;;;;;26.84;60.36;101419.19;6038191;29;20341;-73
2022/08/26 08:17:02;;;;;;;13.00;9.05;;;;;;;27.04;59.77;101413.41;6034965;29;20324;-70
2022/08/26 08:20:24;;;;;;;10.27;8.50;;;;;;;26.65;60.61;101409.13;6032258;29;20487;-69
2022/08/26 08:23:45;;;;;;;12.27;8.52;;;;;;;27.06;60.17;101419.56;6043550;29;20238;-67
2022/08/26 08:27:07;;;;;;;11.88;9.73;;;;;;;27.13;60.25;101419.47;6042887;29;20550;-67
2022/08/26 08:30:28;;;;;;;13.27;8.40;;;;;;;27.85;57.55;101421.31;6034932;29;20233;-69
2022/08/26 08:33:49;;;;;;;10.80;8.02;;;;;;;28.39;56.47;101430.25;6036268;29;20238;-68
2022/08/26 08:37:10;;;;;;;11.23;8.15;;;;;;;28.53;55.83;101430.03;6038932;29;20277;-69
2022/08/26 08:40:31;;;;;;;14.98;8.82;;;;;;;28.15;56.43;101436.00;6039847;29;20233;-68
2022/08/26 08:43:55;;;;;;;10.85;8.43;;;;;;;27.89;57.24;101428.91;6036718;29;20242;-67
2022/08/26 08:47:24;;;;;;;14.07;8.30;;;;;;;27.62;58.10;101428.44;6039721;29;20246;-68
2022/08/26 08:50:48;;;;;;;10.05;8.60;;;;;;;28.01;57.27;101424.28;6044034;29;20229;-70
2022/08/26 08:54:10;;;;;;;13.73;7.63;;;;;;;28.62;55.38;101423.91;6035375;29;20579;-70
2022/08/26 08:57:45;;;;;;;12.52;9.10;;;;;;;28.30;54.49;101420.59;6030622;29;20225;-67
2022/08/26 09:01:15;;;;;;;10.40;7.80;;;;;;;28.32;55.33;101421.22;6029192;29;20233;-67
2022/08/26 09:05:05;;;;;;;11.57;8.50;;;;;;;28.62;54.98;101411.97;6033715;29;20494;-68
2022/08/26 09:08:33;;;;;;;11.75;9.50;;;;;;;28.51;55.03;101416.41;6033975;29;21614;-68
2022/08/26 09:11:57;;;;;;;11.80;8.93;;;;;;;28.96;54.27;101409.16;6037807;29;20230;-69
2022/08/26 09:15:23;;;;;;;11.40;8.18;;;;;;;29.37;53.59;101394.25;6039171;29;20246;-67
2022/08/26 09:18:59;;;;;;;12.02;9.55;;;;;;;29.67;52.82;101405.09;6037008;29;20336;-69
2022/08/26 09:22:32;;;;;;;10.88;8.00;;;;;;;29.64;51.78;101400.03;6030911;29;20300;-69
2022/08/26 09:25:55;;;;;;;10.38;8.25;;;;;;;29.84;51.92;101400.44;6038932;29;20257;-69
2022/08/26 09:29:23;;;;;;;11.23;7.82;;;;;;;30.36;51.13;101403.88;6037512;29;20755;-67
2022/08/26 09:32:56;;;;;;;11.85;8.60;;;;;;;29.64;52.34;101402.81;6029666;29;20345;-67
2022/08/26 09:36:25;;;;;;;13.07;8.82;;;;;;;30.33;50.70;101408.00;6034195;29;20312;-66
2022/08/26 09:39:45;;;;;;;13.00;8.68;;;;;;;30.00;50.33;101411.59;6028642;29;20560;-66
2022/08/26 09:43:18;;;;;;;10.75;8.60;;;;;;;29.23;52.38;101398.38;6034006;29;20238;-66
2022/08/26 09:46:43;;;;;;;9.95;8.25;;;;;;;29.81;51.80;101393.44;6029253;29;20241;-66
2022/08/26 09:50:18;;;;;;;14.45;8.90;;;;;;;30.20;50.88;101396.34;6033808;29;20273;-67
2022/08/26 09:53:53;;;;;;;13.85;8.55;;;;;;;30.10;50.36;101394.25;6032450;29;20221;-67
2022/08/26 09:57:24;;;;;;;12.30;7.78;;;;;;;29.77;50.13;101397.81;6030545;29;20234;-66
2022/08/26 10:00:55;;;;;;;12.15;7.88;;;;;;;29.56;51.47;101392.94;6025817;29;20233;-65
2022/08/26 10:04:22;;;;;;;12.18;9.07;;;;;;;29.55;51.54;101398.75;6033662;29;20241;-66
2022/08/26 10:07:47;;;;;;;11.25;8.18;;;;;;;28.60;53.17;101392.75;6033511;29;20529;-65
2022/08/26 10:11:17;;;;;;;13.45;8.50;;;;;;;28.03;54.97;101388.84;6031769;29;20226;-66
2022/08/26 10:14:45;;;;;;;16.85;9.55;;;;;;;28.29;54.69;101388.38;6038590;29;20245;-66
2022/08/26 10:18:12;;;;;;;16.50;9.75;;;;;;;28.31;54.73;101372.34;6028171;29;20236;-65
2022/08/26 10:21:38;;;;;;;14.43;8.88;;;;;;;29.32;52.38;101369.13;6029447;29;20237;-66
2022/08/26 10:25:02;;;;;;;13.45;8.48;;;;;;;29.63;51.30;101356.63;6018969;29;20246;-66
2022/08/26 10:28:31;;;;;;;12.90;9.20;;;;;;;29.75;50.93;101349.09;6035549;29;20234;-66
2022/08/26 10:31:59;;;;;;;15.00;9.95;;;;;;;29.80;51.01;101347.28;6030021;29;20238;-67
2022/08/26 10:35:20;;;;;;;16.67;9.23;;;;;;;29.92;50.47;101348.03;6040329;29;20550;-66
2022/08/26 10:38:41;;;;;;;17.55;9.20;;;;;;;29.91;50.79;101346.38;6035473;29;20358;-67
2022/08/26 10:42:08;;;;;;;12.52;9.40;;;;;;;29.64;51.16;101342.50;6038138;29;20543;-66
2022/08/26 10:45:37;;;;;;;9.88;8.38;;;;;;;29.49;51.31;101338.59;6028544;29;22190;-67
2022/08/26 10:49:03;;;;;;;15.23;9.70;;;;;;;29.31;51.58;101334.06;6040110;29;20256;-65
2022/08/26 10:52:38;;;;;;;9.45;7.97;;;;;;;29.34;51.86;101332.75;6032241;29;20233;-67
2022/08/26 10:56:04;;;;;;;10.95;9.35;;;;;;;29.49;51.44;101328.31;6034242;29;20230;-65
2022/08/26 10:59:39;;;;;;;12.02;8.63;;;;;;;29.71;50.10;101328.44;6044585;29;20242;-66
2022/08/26 11:03:09;;;;;;;10.88;7.70;;;;;;;29.75;50.03;101326.84;6036149;29;20241;-66
2022/08/26 11:06:31;;;;;;;19.00;9.68;;;;;;;30.20;48.76;101326.78;6036567;29;20242;-66
2022/08/26 11:09:52;;;;;;;13.10;8.07;;;;;;;31.07;46.68;101313.88;6039523;29;20237;-65
2022/08/26 11:13:13;;;;;;;15.32;8.32;;;;;;;31.14;46.11;101309.78;6033419;29;20247;-67
2022/08/26 11:16:40;;;;;;;18.45;9.18;;;;;;;30.48;47.53;101305.25;6032942;29;20547;-66
2022/08/26 11:20:04;;;;;;;14.55;8.55;;;;;;;30.70;47.65;101296.94;6030026;29;20237;-66
2022/08/26 11:23:46;;;;;;;17.42;8.30;;;;;;;31.25;46.15;101294.03;6036384;29;20267;-66
2022/08/26 11:27:09;;;;;;;16.75;9.70;;;;;;;31.59;46.01;101289.06;6038388;29;20241;-67
2022/08/26 11:30:43;;;;;;;12.85;7.85;;;;;;;31.76;45.57;101287.84;6034147;29;20581;-68
2022/08/26 11:34:05;;;;;;;14.32;7.97;;;;;;;32.24;44.30;101282.13;6038516;29;20511;-68
2022/08/26 11:37:34;;;;;;;13.48;7.28;;;;;;;32.75;42.64;101272.06;6038037;29;20233;-67
2022/08/26 11:41:10;;;;;;;17.33;8.80;;;;;;;33.34;41.26;101264.19;6041012;29;20241;-68
2022/08/26 11:44:39;;;;;;;12.13;8.27;;;;;;;33.60;41.24;101257.53;6032471;29;20238;-69
2022/08/26 11:48:14;;;;;;;12.18;7.63;;;;;;;34.34;38.51;101254.94;6034995;29;20245;-69
2022/08/26 11:51:36;;;;;;;11.88;7.82;;;;;;;34.56;38.56;101257.44;6044527;29;20287;-68
2022/08/26 11:55:05;;;;;;;16.05;7.22;;;;;;;37.56;32.50;101243.59;6035804;29;20608;-68
2022/08/26 11:58:27;;;;;;;18.17;8.98;;;;;;;40.37;29.68;101232.03;6042116;29;20643;-68
2022/08/26 12:01:52;;;;;;;7.60;6.60;;;;;;;41.10;27.00;101234.91;6036202;29;20616;-66
2022/08/26 12:05:16;;;;;;;13.85;6.85;;;;;;;41.77;26.22;101231.59;6023302;29;21605;-66
2022/08/26 12:08:42;;;;;;;11.82;6.95;;;;;;;41.93;25.55;101225.06;6036695;29;20238;-66
2022/08/26 12:12:12;;;;;;;12.32;7.18;;;;;;;40.63;26.17;101221.66;6025917;29;21193;-67
2022/08/26 12:15:35;;;;;;;10.27;6.55;;;;;;;39.42;28.54;101221.25;6032892;29;20238;-66
2022/08/26 12:18:57;;;;;;;9.43;6.13;;;;;;;36.86;31.53;101222.13;6042052;29;20242;-65
2022/08/26 12:22:21;;;;;;;9.50;6.85;;;;;;;35.03;34.88;101231.72;6028420;29;21011;-66
2022/08/26 12:25:43;;;;;;;13.20;6.80;;;;;;;34.44;35.63;101220.47;6023503;29;20253;-66
2022/08/26 12:29:08;;;;;;;11.05;6.88;;;;;;;34.19;37.30;101223.34;6031603;29;20229;-66
2022/08/26 12:32:31;;;;;;;10.68;7.20;;;;;;;35.40;35.13;101212.41;6026836;29;20254;-65
2022/08/26 12:35:52;;;;;;;9.65;5.80;;;;;;;36.11;33.42;101213.44;6033152;29;20237;-66
2022/08/26 12:39:23;;;;;;;7.05;6.35;;;;;;;35.03;35.32;101212.09;6042116;29;20237;-66
2022/08/26 12:42:45;;;;;;;11.00;6.18;;;;;;;34.16;37.11;101209.91;6024362;29;20328;-66
2022/08/26 12:46:10;;;;;;;7.40;6.53;;;;;;;33.80;38.02;101201.56;6035962;29;20229;-67
2022/08/26 12:49:31;;;;;;;11.60;7.63;;;;;;;32.87;40.04;101202.00;6039652;29;20238;-66
2022/08/26 12:52:57;;;;;;;13.05;6.95;;;;;;;32.05;43.86;101197.16;6035034;29;20555;-66
2022/08/26 12:56:31;;;;;;;12.18;7.72;;;;;;;31.63;45.54;101201.84;6032258;29;20388;-66
2022/08/26 12:59:52;;;;;;;10.20;7.07;;;;;;;31.71;45.76;101197.72;6038152;29;20234;-66
2022/08/26 13:03:42;;;;;;;10.32;7.60;;;;;;;31.53;46.06;101191.47;6038696;29;20262;-65
2022/08/26 13:07:21;;;;;;;9.52;7.45;;;;;;;31.35;47.61;101189.06;6033044;29;20612;-66
2022/08/26 13:10:45;;;;;;;15.43;8.05;;;;;;;31.29;47.18;101184.50;6034046;29;20225;-65
2022/08/26 13:14:09;;;;;;;12.52;8.02;;;;;;;31.78;45.59;101174.06;6031562;29;20230;-66
2022/08/26 13:17:30;;;;;;;11.02;8.20;;;;;;;31.18;47.13;101173.56;6031046;29;20246;-67
2022/08/26 13:20:53;;;;;;;12.63;7.15;;;;;;;31.00;47.56;101176.72;6031977;29;20246;-65
2022/08/26 13:24:16;;;;;;;16.38;8.80;;;;;;;31.12;47.09;101169.03;6040792;29;20242;-66
2022/08/26 13:27:37;;;;;;;8.18;7.38;;;;;;;31.17;47.12;101166.28;6036497;29;20230;-67
2022/08/26 13:30:58;;;;;;;13.02;8.23;;;;;;;31.20;47.65;101161.03;6023829;29;20550;-66
2022/08/26 13:34:21;;;;;;;12.13;8.85;;;;;;;30.87;48.33;101158.50;6020624;29;20239;-66
2022/08/26 13:37:44;;;;;;;11.63;8.25;;;;;;;31.09;48.43;101162.03;6029899;29;20633;-66
2022/08/26 13:41:05;;;;;;;10.77;7.03;;;;;;;31.64;46.89;101160.84;6007167;29;20237;-65
2022/08/26 13:44:26;;;;;;;11.57;8.07;;;;;;;31.14;47.88;101173.25;6011655;29;20242;-65
2022/08/26 13:47:47;;;;;;;10.52;8.07;;;;;;;30.39;50.33;101173.22;6012860;29;20249;-67
2022/08/26 13:51:08;;;;;;;15.68;8.80;;;;;;;30.07;51.43;101180.53;6017478;29;20242;-67
2022/08/26 13:54:31;;;;;;;13.02;7.85;;;;;;;29.92;52.17;101177.53;6020022;29;20242;-65
2022/08/26 13:57:52;;;;;;;11.90;8.93;;;;;;;29.74;51.89;101169.50;6019963;29;20237;-66
2022/08/26 14:01:14;;;;;;;12.55;10.13;;;;;;;29.98;52.09;101173.72;6016220;29;20253;-65
2022/08/26 14:04:35;;;;;;;16.98;14.02;;;;;;;30.36;50.64;101172.88;6021036;29;20242;-66
2022/08/26 14:07:57;;;;;;;12.95;11.18;;;;;;;30.55;50.81;101177.03;6015737;29;20315;-66
2022/08/26 14:11:20;;;;;;;17.75;10.55;;;;;;;30.52;50.90;101174.78;6010720;29;20795;-66
2022/08/26 14:14:41;;;;;;;11.27;9.25;;;;;;;30.48;50.29;101181.94;6013673;29;20238;-66
2022/08/26 14:18:03;;;;;;;10.75;8.35;;;;;;;30.84;50.07;101177.63;6004122;29;20300;-66
2022/08/26 14:21:25;;;;;;;13.80;8.85;;;;;;;31.20;49.03;101185.28;6008410;29;20230;-66
2022/08/26 14:24:46;;;;;;;13.30;8.77;;;;;;;30.96;50.13;101190.31;6009253;29;20270;-66
2022/08/26 14:28:08;;;;;;;24.48;22.27;;;;;;;31.30;49.21;101189.00;6004361;29;20261;-67
2022/08/26 14:31:31;;;;;;;11.20;9.05;;;;;;;31.24;49.53;101198.41;5995288;29;20876;-66
2022/08/26 14:34:53;;;;;;;13.20;9.23;;;;;;;31.46;49.44;101192.78;5998117;29;20329;-66
2022/08/26 14:38:15;;;;;;;15.45;8.85;;;;;;;31.81;48.46;101187.50;6020325;29;20245;-66
2022/08/26 14:41:46;;;;;;;15.52;10.30;;;;;;;31.26;49.70;101171.13;6013755;29;20241;-66
2022/08/26 14:45:12;;;;;;;15.95;9.52;;;;;;;31.25;49.79;101165.81;6022481;29;20241;-66
2022/08/26 14:48:33;;;;;;;28.08;25.65;;;;;;;31.91;49.17;101154.06;6015089;29;20233;-65
2022/08/26 14:51:55;;;;;;;17.42;9.50;;;;;;;31.90;48.15;101151.53;6023484;29;20266;-66
2022/08/26 14:55:16;;;;;;;14.00;9.48;;;;;;;32.11;48.04;101150.56;6018179;29;20234;-65
2022/08/26 14:58:37;;;;;;;12.30;9.43;;;;;;;32.54;47.10;101139.06;6020631;29;20233;-66
2022/08/26 15:02:00;;;;;;;12.85;8.80;;;;;;;32.23;45.91;101142.84;6015372;29;20261;-66
2022/08/26 15:05:22;;;;;;;14.90;9.60;;;;;;;32.39;44.76;101164.09;6028762;29;20457;-67
2022/08/26 15:08:43;;;;;;;12.13;7.60;;;;;;;32.70;43.88;101165.91;6043280;29;20256;-66
2022/08/26 15:12:05;;;;;;;12.00;7.80;;;;;;;33.16;42.07;101172.47;6033731;29;20704;-66
2022/08/26 15:15:28;;;;;;;12.65;8.70;;;;;;;33.19;42.83;101171.06;6033620;29;20312;-66
2022/08/26 15:18:51;;;;;;;10.68;7.18;;;;;;;32.80;43.61;101168.72;6033523;29;20234;-66
2022/08/26 15:22:11;;;;;;;9.43;7.35;;;;;;;31.72;45.92;101166.78;6017396;29;20235;-66
2022/08/26 15:25:32;;;;;;;10.90;6.85;;;;;;;32.12;45.36;101157.84;6009410;29;20616;-67
2022/08/26 15:28:53;;;;;;;11.18;7.93;;;;;;;31.62;45.85;101163.06;6008731;29;20285;-66
2022/08/26 15:32:14;;;;;;;6.47;5.88;;;;;;;31.75;45.65;101176.56;6020456;29;20249;-67
2022/08/26 15:35:37;;;;;;;7.57;6.82;;;;;;;32.18;44.86;101181.88;6021035;29;20322;-67
2022/08/26 15:39:00;;;;;;;8.82;6.82;;;;;;;32.71;44.06;101183.53;6023315;29;20246;-66
2022/08/26 15:42:21;;;;;;;8.35;6.88;;;;;;;31.48;45.57;101204.50;6028389;29;20238;-65
2022/08/26 15:45:42;;;;;;;6.13;5.50;;;;;;;30.38;47.03;101209.66;6022061;29;20229;-66